Tiempo atmosférico en la estación meteorológica de Calamocha, Teruel (890 m.)



Fecha
DESCASC
Temp. máxima en grados centígrados (hora)
DESCASC
Temp. mínima en grados centígrados (hora)
DESCASC
Temp. media en grados centígrados
DESCASC
Racha de viento máxima en m/sg (hora)
DESCASC
Velocidad máxima media en intervalos de 10 minutos(hora)
DESCASC
Precipitaciones diarias en mm
DESCASC
Precipitaciones de 00:00 a 06:00 en mm
DESCASC
Precipitaciones de 06:00 a 12:00 en mm
DESCASC
Precipitaciones de 12:00 a 18:00 en mm
DESCASC
Precipitaciones de 18:00 a 24:00 en mm
DESCASC
21-02-2021 14 (13:00) 5.8 (07:40) 9.9 13.89 (15:30) 10 (13:10) 0 0 0 0 0
20-02-2021 20.2 (15:00) 2.5 (06:40) 11.4 11.67 (16:10) 6.67 (16:20) 0 0 0 0 0
19-02-2021 18.5 (15:20) 1.2 (02:30) 9.9 10 (16:30) 6.11 (13:50) 0 0 0 0 0
18-02-2021 17.8 (15:40) 1.4 (00:00) 9.6 12.78 (14:40) 6.94 (14:40) 0 0 0 0 0
17-02-2021 17.6 (15:50) 0.1 (00:00) 8.9 10.83 (16:00) 5.56 (16:10) 0 0 0 0 0
16-02-2021 19.6 (15:30) -0.1 (00:00) 9.8 12.22 (16:00) 7.22 (16:00) 0 0 0 0 0
15-02-2021 16.3 (17:10) 1.9 (00:00) 9.1 6.67 (11:40) 4.17 (11:40) 0 0 0 0 0
14-02-2021 16.2 (16:20) -0.8 (-00:0) 7.7 7.5 (18:20) 3.33 (19:10) 0 0 0 0 0
13-02-2021 11.8 (16:50) 0.5 (00:00) 6.2 7.78 (16:50) 5.28 (17:00) 0 0 0 0 0
12-02-2021 11.3 (13:50) 4.6 (00:00) 8 16.39 (10:20) 9.44 (14:30) 3 0 2.8 0.2 0
11-02-2021 14.3 (14:30) -0.2 (00:00) 7.1 9.17 (14:40) 5.83 (16:20) 0 0 0 0 0
10-02-2021 10.8 (15:40) 1.5 (00:00) 6.2 14.17 (12:40) 8.06 (12:00) 7.2 5.4 1.8 0 0
09-02-2021 11.4 (13:10) 3.9 (00:00) 7.6 18.06 (22:50) 8.61 (16:00) 5.4 0 0 1.2 4.2
08-02-2021 10.4 (15:00) 5 (00:00) 7.7 14.44 (13:20) 8.33 (13:20) 1 0 1 0 0
07-02-2021 8.9 (16:10) 2 (00:00) 5.4 10.83 (14:00) 6.11 (14:00) 0 0 0 0 0
06-02-2021 11.2 (12:20) 4.3 (00:00) 7.8 9.17 (18:20) 5.83 (04:30) 4.6 3.6 0 0.8 0.2
05-02-2021 17.8 (15:10) 2.7 (00:00) 10.2 12.78 (13:50) 6.67 (14:30) 0 0 0 0 0
04-02-2021 18.8 (15:50) 4.5 (00:00) 11.6 11.67 (16:10) 5.56 (16:00) 0 0 0 0 0
03-02-2021 15.3 (15:00) 3.4 (00:00) 9.4 10.28 (12:10) 5.83 (15:30) 0 0 0 0 0
02-02-2021 14.6 (15:20) 3.9 (23:50) 9.3 10.56 (15:00) 5.83 (16:30) 0 0 0 0 0
01-02-2021 15.1 (15:40) 7.3 (00:00) 11.2 15 (05:10) 8.33 (04:50) 0 0 0 0 0
31-01-2021 12.3 (16:10) 5.7 (00:00) 9 16.39 (04:00) 9.72 (07:30) 0 0 0 0 0
30-01-2021 11.6 (15:20) 5.4 (00:00) 8.5 18.89 (14:40) 8.89 (14:40) 2.6 0 1 1 0.6
29-01-2021 16.5 (14:30) 2.7 (00:00) 9.6 10 (13:10) 5.28 (13:00) 0 0 0 0 0
28-01-2021 19.2 (15:20) 1.7 (00:00) 10.5 8.06 (15:20) 4.17 (15:30) 0 0 0 0 0
27-01-2021 15.8 (16:10) 6.1 (00:00) 11 9.17 (15:10) 6.11 (15:10) 0 0 0 0 0
26-01-2021 11.6 (17:30) -1.1 (-00:0) 5.3 5.56 (17:50) 3.06 (17:50) 0.2 0.2 0 0 0
25-01-2021 11.8 (13:30) 3.7 (00:00) 7.8 14.17 (14:10) 6.67 (10:20) 7.2 0 0 7.2 0

Gráficas

Temp. máximas Temp. mínimas Temp. medias Precipitaciones Rachas de viento máximas Velocidades máximas media en intervalos de 10 minutos

Datos horarios

Fecha y hora oficial Temperatura (ºC) Velocidad del viento (km/h) Dirección del viento Racha (km/h) Dirección de racha Precipitación (mm) Presión (hPa) Tendencia (hPa) Humedad (%)
2021-02-23 23:00:00 5.7 9 Sudeste 12 Sudeste 0 931.7 1.4 81
2021-02-23 22:00:00 7.3 5 Sur 13 Sudeste 0 931.4 1.8 74
2021-02-23 21:00:00 8.3 6 Sudoeste 25 Sudeste 0 930.9 1.8 75
2021-02-23 20:00:00 9.4 20 Este 28 Este 0 930.3 1.5 75
2021-02-23 19:00:00 11 18 Este 27 Este 0 929.6 0.5 67
2021-02-23 18:00:00 14.3 16 Sudeste 28 Sudeste 0 929.1 -- 43
2021-02-23 17:00:00 15.4 12 Sur 26 Sudeste 0 928.8 -- 37
2021-02-23 16:00:00 15.1 12 Sudeste 26 Sudeste 0 929.1 -- 38
2021-02-23 15:00:00 14.1 7 Sudoeste 15 Sudoeste 0 929.2 -- 44
2021-02-23 14:00:00 12.6 6 Sudoeste 17 Sur 0 929.5 -- 47
2021-02-23 13:00:00 11.2 10 Sur 21 Sudoeste 0 930.2 -- 55
2021-02-23 12:00:00 9.1 7 Sur 15 Sudoeste 0 930.5 -- 64
2021-02-23 11:00:00 7.6 8 Sur 14 Sudeste 0 930.1 -- 71
2021-02-23 10:00:00 4.5 4 Nordeste 15 Este 0 929.8 -- 80
2021-02-23 09:00:00 3.5 11 Sudeste 16 Sudeste 0 929 -- 87
2021-02-23 08:00:00 3.4 10 Sudeste 15 Sudeste 0 928 -- 87
2021-02-23 07:00:00 3.5 7 Sudeste 15 Sur 0 927.4 -- 85
2021-02-23 06:00:00 3.8 5 Sur 11 Sudeste 0 926.9 -- 87
2021-02-23 05:00:00 3.9 2 Sudeste 6 Este 0 926.4 -- 88
2021-02-23 04:00:00 3.9 4 Sudeste 17 Este 0 925.8 -- 88
2021-02-23 03:00:00 4.1 11 Sudeste 15 Este 0 925.1 -- 88
2021-02-23 02:00:00 4.5 12 Este 16 Sudeste 0 924.7 -- 87
2021-02-23 01:00:00 4.8 3 Norte 12 Este 0 923.8 -- 89
2021-02-23 00:00:00 4.9 6 Nordeste 13 Norte 0 923.4 -- 90
2021-02-22 23:00:00 5 2 Norte 6 Nordeste 0 922.8 -- 92
2021-02-22 22:00:00 4.9 5 Nordeste 8 Norte 0 922.4 -- 92
2021-02-22 21:00:00 4.9 3 Norte 11 Nordeste 0 921.6 -- 91
2021-02-22 20:00:00 4.8 9 Nordeste 14 Nordeste 0 921.1 -- 92
2021-02-22 19:00:00 5.3 5 Norte 13 Norte 0 919.7 -- 90
2021-02-22 18:00:00 5.8 6 Norte 13 Norte 0 918.4 -- 84
2021-02-22 17:00:00 5.7 5 Norte 15 Noroeste 0 917.4 -- 85
2021-02-22 16:00:00 6 6 Norte 15 Noroeste 0 916.6 -- 80
2021-02-22 15:00:00 5.7 8 Norte 18 Noroeste 0 915.9 -- 82
2021-02-22 14:00:00 5.9 6 Norte 17 Norte 0 915.4 -- 80
2021-02-22 13:00:00 5.5 6 Norte 19 Noroeste 0 915.1 -- 83
2021-02-22 12:00:00 5.1 5 Norte 12 Norte 0.2 914.7 -- 86
2021-02-22 11:00:00 4.1 5 Noroeste 12 Noroeste 0 914.2 -- 88
2021-02-22 10:00:00 4.5 6 Norte 16 Noroeste 0 913.5 -- 84
2021-02-22 09:00:00 4.4 5 Norte 16 Oeste 0 912.4 -- 85
2021-02-22 08:00:00 4.4 8 Noroeste 15 Noroeste 0 911.3 -- 87
2021-02-22 07:00:00 4.8 8 Oeste 15 Oeste 0 910.3 3.1 86
2021-02-22 06:00:00 5 6 Oeste 15 Noroeste 0 909.1 -- 85
2021-02-22 05:00:00 5.7 6 Oeste 18 Noroeste 0 907.9 -- 87
2021-02-22 04:00:00 7 7 Sur 28 Oeste 0.6 907.2 -- 87
2021-02-22 03:00:00 8.1 6 Sur 14 Sudeste 0 906.7 -- 80
2021-02-22 02:00:00 8.6 8 Sur 22 Sudeste 0 906 -- 76
2021-02-22 01:00:00 9.2 15 Sudeste 26 Este 0 905.9 -- 82
2021-02-22 00:00:00 9.5 17 Este 36 Este 0 905.6 -- 79
2021-02-21 23:00:00 9.6 24 Este 43 Este 0 905.9 -- 78
2021-02-21 22:00:00 10 24 Sudeste 39 Este 0 906.2 0.9 73
2021-02-21 21:00:00 10 16 Sudeste 41 Este 0 906.4 -- 71
2021-02-21 20:00:00 10.1 26 Este 45 Este 0 905.3 -- 71
2021-02-21 19:00:00 10.2 21 Este 28 Este 0 905.3 -- 70
2021-02-21 18:00:00 11.3 15 Sudeste 41 Sudeste 0 905.1 -- 67
2021-02-21 17:00:00 11.6 30 Este 45 Este 0 904.8 -- 65
2021-02-21 16:00:00 11.4 30 Este 50 Sudeste 0 905 -- 67
2021-02-21 15:00:00 11.5 31 Este 48 Este 0 904.9 -- 65
2021-02-21 14:00:00 13.7 28 Sudeste 48 Sudeste 0 905.8 -- 54
2021-02-21 13:00:00 14 31 Sudeste 44 Sudeste 0 907 -- 51
2021-02-21 12:00:00 11.4 15 Sudoeste 27 Sudoeste 0 907.4 -- 65
2021-02-21 11:00:00 10.1 14 Sudoeste 28 Sudoeste 0 907.5 -- 65
2021-02-21 10:00:00 7.7 9 Sudoeste 19 Sudoeste 0 908.3 -- 69
2021-02-21 09:00:00 6.1 5 Sur 10 Sudeste 0 908.2 -- 79
2021-02-21 08:00:00 5.9 5 Sur 9 Sur 0 908.4 -- 79
2021-02-21 07:00:00 6.4 3 Noroeste 8 Sudoeste 0 909.3 -- 76
2021-02-21 06:00:00 7.2 6 Sudoeste 19 Sur 0 909.7 -- 71
2021-02-21 05:00:00 7.3 10 Sur 20 Sur 0 910.2 -- 70
2021-02-21 04:00:00 7.9 10 Sur 26 Sudeste 0 910.9 -- 66
2021-02-21 03:00:00 8.2 21 Sudeste 29 Sudeste 0 911.3 -- 65
2021-02-21 02:00:00 7.7 14 Sudeste 22 Sur 0 911.6 -- 70
2021-02-21 01:00:00 8.7 12 Sur 29 Sudoeste 0 911.8 -- 65
2021-02-21 00:00:00 9.1 6 Sur 19 Sur 0 911.8 -- 62
2021-02-20 23:00:00 9.7 8 Sur 18 Sur 0 912.3 -- 61
2021-02-20 22:00:00 10.3 8 Sur 17 Sur 0 912.6 -- 57
2021-02-20 21:00:00 10.1 8 Sudeste 14 Sudeste 0 912.6 -- 55
2021-02-20 20:00:00 11.8 6 Sur 24 Sur 0 912.6 -- 43
2021-02-20 19:00:00 13.5 10 Sur 36 Sur 0 911.9 -- 39
2021-02-20 18:00:00 15.4 16 Sur 37 Sur 0 911.7 -- 30
2021-02-20 17:00:00 17.4 15 Sur 42 Sur 0 911.6 -- 28
2021-02-20 16:00:00 20.1 22 Sur 40 Sur 0 911.6 -- 22
2021-02-20 15:00:00 20.2 19 Sur 42 Sur 0 912.3 -- 21
2021-02-20 14:00:00 19.4 22 Sur 37 Sur 0 913.2 -- 23
2021-02-20 13:00:00 18.1 20 Sur 38 Sur 0 914.1 -- 24
2021-02-20 12:00:00 16.6 18 Sur 39 Sur 0 914.7 -- 27
2021-02-20 11:00:00 14.1 18 Sur 39 Sur 0 915.1 -- 33
2021-02-20 10:00:00 10.1 8 Sudoeste 16 Sudoeste 0 915.2 -- 50
2021-02-20 09:00:00 6.2 5 Sudeste 9 Sur 0 915.2 0.3 67
2021-02-20 08:00:00 3.7 2 Este 6 Sudeste 0 915 -- 75
2021-02-20 07:00:00 2.8 5 Sur 10 Sur 0 914.8 -- 81
2021-02-20 06:00:00 2.9 6 Sudeste 14 Sudeste 0 914.9 -- 81
2021-02-20 05:00:00 2.7 13 Sudeste 14 Sudeste 0 914.9 -- 83
2021-02-20 04:00:00 3.6 8 Sudeste 10 Sudeste 0 915.3 -0.8 78
2021-02-20 03:00:00 4.6 9 Sudeste 17 Sudeste 0 915.9 -- 75
2021-02-20 02:00:00 4 6 Sudeste 10 Sudeste 0 916 -- 73
2021-02-20 01:00:00 3.8 9 Sudeste 10 Sur 0 916.1 -- 69
2021-02-20 00:00:00 5 5 Sudeste 12 Sur 0 916.8 -- 61
2021-02-19 23:00:00 5.5 9 Sudeste 14 Sudeste 0 916.7 0.2 58
2021-02-19 22:00:00 6.5 10 Sudeste 14 Sur 0 916.7 -- 54
2021-02-19 21:00:00 7.5 9 Sur 14 Sur 0 916.7 -- 50
2021-02-19 20:00:00 9.8 8 Sur 15 Sudeste 0 916.5 -- 43
2021-02-19 19:00:00 14.4 6 Sudoeste 22 Sudoeste 0 916.1 -- 29
2021-02-19 18:00:00 16.9 16 Sudoeste 27 Sudoeste 0 915.8 -- 23
2021-02-19 17:00:00 18 12 Sudoeste 36 Sudoeste 0 915.7 -0.7 22
2021-02-19 16:00:00 18.1 19 Sudoeste 32 Oeste 0 915.7 -- 23
2021-02-19 15:00:00 18.3 17 Sudoeste 33 Oeste 0 915.9 -- 22
2021-02-19 14:00:00 17.5 19 Sudoeste 35 Sudoeste 0 916.4 -- 22
2021-02-19 13:00:00 16.9 16 Sur 33 Sur 0 917.5 -- 30
2021-02-19 12:00:00 15.3 17 Sur 33 Sur 0 918 -- 35
2021-02-19 11:00:00 12.3 13 Sudoeste 25 Sur 0 918.2 -- 49
2021-02-19 10:00:00 6.3 8 Sudeste 13 Sur 0 918.7 -- 65
2021-02-19 09:00:00 3.5 9 Sur 14 Sur 0 918.7 -- 71
2021-02-19 08:00:00 2.4 14 Sudeste 22 Sudeste 0 918.2 -- 75
2021-02-19 07:00:00 1.5 12 Sudeste 22 Sur 0 918.2 -- 78
2021-02-19 06:00:00 1.3 14 Sudeste 18 Sudeste 0 918.1 -- 80
2021-02-19 05:00:00 2 10 Sudeste 14 Sudeste 0 917.8 -- 78
2021-02-19 04:00:00 2 8 Sudeste 13 Sudeste 0 918 -- 78
2021-02-19 03:00:00 1.2 5 Sur 7 Sur 0 918.3 -- 81
2021-02-19 02:00:00 1.6 3 Sudeste 7 Sur 0 918.2 -- 80
2021-02-19 01:00:00 2.6 3 Norte 10 Sudeste 0 918.2 -- 76
2021-02-19 00:00:00 4.2 10 Sudeste 14 Sudeste 0 918.2 -- 70
2021-02-18 23:00:00 5.7 12 Sudeste 15 Sudeste 0 918.4 -- 62
2021-02-18 22:00:00 6 11 Sudeste 13 Sudeste 0 918 -- 62
2021-02-18 21:00:00 7.3 9 Sur 13 Sur 0 917.6 -- 58
2021-02-18 20:00:00 9.6 10 Sur 14 Sur 0 917.2 -- 50
2021-02-18 19:00:00 12.9 5 Oeste 31 Oeste 0 916.6 -- 37
2021-02-18 18:00:00 15.3 17 Oeste 34 Oeste 0 915.8 -- 30
2021-02-18 17:00:00 16.8 20 Oeste 36 Oeste 0 915.8 -- 26
2021-02-18 16:00:00 16.8 23 Oeste 39 Oeste 0 915.8 -- 24
2021-02-18 15:00:00 17.4 23 Oeste 46 Oeste 0 915.6 -- 21
2021-02-18 14:00:00 17.5 14 Oeste 28 Oeste 0 915.8 -- 26
2021-02-18 13:00:00 15.4 7 Sudoeste 18 Oeste 0 916.4 -- 38
2021-02-18 12:00:00 13.6 9 Sudoeste 15 Sudoeste 0 916.7 -- 43
2021-02-18 11:00:00 10.7 6 Sudeste 14 Sudeste 0 916.9 -- 59
2021-02-18 10:00:00 5.3 8 Sudeste 15 Sur 0 917.1 -- 71
2021-02-18 09:00:00 3.3 9 Sudeste 13 Sudeste 0 916.9 -- 76
2021-02-18 08:00:00 2 8 Sudeste 14 Sudeste 0 916.5 -- 78
2021-02-18 07:00:00 2.3 12 Sudeste 14 Sudeste 0 916.5 -- 78
2021-02-18 06:00:00 1.4 10 Sudeste 12 Sudeste 0 916.6 -- 82
2021-02-18 05:00:00 2.1 8 Sudeste 10 Sudeste 0 916.8 -- 79
2021-02-18 04:00:00 2.3 10 Sudeste 11 Sudeste 0 917.1 -- 79
2021-02-18 03:00:00 2.8 7 Sudeste 10 Sudeste 0 917.6 -- 77
2021-02-18 02:00:00 3.7 9 Sudeste 11 Sudeste 0 917.8 -- 73
2021-02-18 01:00:00 4.6 10 Sudeste 12 Sudeste 0 918.2 -- 70
2021-02-18 00:00:00 5.2 8 Sudeste 11 Sudeste 0 918.5 -- 68
2021-02-17 23:00:00 5.8 4 Sudeste 9 Sudeste 0 918.5 -- 68
2021-02-17 22:00:00 7.8 5 Sudoeste 12 Sudeste 0 918.6 -- 58
2021-02-17 21:00:00 8.1 6 Sudeste 8 Sudeste 0 918.5 -- 58
2021-02-17 20:00:00 9.8 5 Sur 13 Sudoeste 0 918.4 -- 53
2021-02-17 19:00:00 14.8 9 Oeste 24 Oeste 0 918.3 -- 33
2021-02-17 18:00:00 17 15 Oeste 30 Oeste 0 918.2 -- 30
2021-02-17 17:00:00 17 16 Oeste 38 Oeste 0 918.5 -- 29
2021-02-17 16:00:00 17.3 18 Oeste 39 Oeste 0 918.7 -- 28
2021-02-17 15:00:00 17 10 Oeste 23 Oeste 0 919.2 -- 32
2021-02-17 14:00:00 16.1 4 Sur 11 Sur 0 919.9 -- 44
2021-02-17 13:00:00 14.9 4 Sur 11 Sudoeste 0 920.8 -- 48
2021-02-17 12:00:00 12.9 5 Sudoeste 9 Sudoeste 0 921.5 -- 57
2021-02-17 11:00:00 8.3 6 Sudeste 14 Sur 0 922.1 -- 75
2021-02-17 10:00:00 4.2 5 Sur 13 Sur 0 922.1 -- 88
2021-02-17 09:00:00 1 3 Sudeste 6 Sudeste 0 922.1 -- 94
2021-02-17 08:00:00 0.1 2 Nordeste 5 Nordeste 0 922 -- 92
2021-02-17 07:00:00 0.4 2 Nordeste 5 Sur 0 922 -- 92
2021-02-17 06:00:00 0.9 3 Sur 5 Sur 0 922.4 -- 89
2021-02-17 05:00:00 1.5 2 Oeste 7 Sur 0 922.3 -- 88
2021-02-17 04:00:00 1.9 3 Sudeste 5 Sudeste 0 922.7 -- 89
2021-02-17 03:00:00 2.7 4 Sur 5 Sur 0 922.8 -- 83
2021-02-17 02:00:00 4.1 2 Sur 7 Sur 0 922.8 -- 79
2021-02-17 01:00:00 5.4 4 Sudoeste 9 Sudeste 0 922.9 -- 77
2021-02-17 00:00:00 6.9 4 Este 11 Sudeste 0 923 -- 72
2021-02-16 23:00:00 8.7 4 Este 8 Este 0 922.9 -- 64
2021-02-16 22:00:00 8.8 6 Sur 9 Sur 0 922.8 -- 61
2021-02-16 21:00:00 11.6 3 Oeste 12 Oeste 0 922.9 -- 49
2021-02-16 20:00:00 12.3 3 Norte 13 Sudoeste 0 922.3 -- 43
2021-02-16 19:00:00 14.5 9 Oeste 24 Oeste 0 921.8 -- 34
2021-02-16 18:00:00 16.5 17 Oeste 36 Oeste 0 921.4 -- 30
2021-02-16 17:00:00 18.5 23 Oeste 43 Oeste 0 921.7 -- 27
2021-02-16 16:00:00 19.2 26 Oeste 44 Oeste 0 921.7 -- 25
2021-02-16 15:00:00 18.9 20 Oeste 39 Sudoeste 0 922 -- 29
2021-02-16 14:00:00 14.9 5 Sur 15 Sur 0 922.9 -- 49
2021-02-16 13:00:00 12.4 7 Sur 12 Sudeste 0 923.8 -- 58
2021-02-16 12:00:00 7.9 7 Sudoeste 17 Sur 0 924.7 -- 74
2021-02-16 11:00:00 4.4 8 Sur 19 Sur 0 925.2 -- 92
2021-02-16 10:00:00 2.7 9 Sur 18 Sur 0 925.3 -- 96
2021-02-16 09:00:00 1.5 7 Sudeste 14 Sudeste 0 924.6 -- 94
2021-02-16 08:00:00 0 7 Sudeste 12 Sur 0 924.6 -- 95
2021-02-16 07:00:00 0.6 8 Sudeste 15 Sudeste 0 924.7 -- 94
2021-02-16 06:00:00 0.8 12 Sudeste 17 Sudeste 0 925.1 -- 93
2021-02-16 05:00:00 1 9 Sudeste 12 Sudeste 0 925.3 -- 94
2021-02-16 04:00:00 1.4 9 Sudeste 12 Sudeste 0 925.9 -- 93
2021-02-16 03:00:00 2.2 8 Sudeste 10 Sudeste 0 926.5 -- 91
2021-02-16 02:00:00 3.2 3 Sudeste 12 Sur 0 926.8 -- 88
2021-02-16 01:00:00 4 8 Sudeste 12 Sudeste 0 927.3 -- 88
2021-02-16 00:00:00 3.9 5 Sudeste 9 Sudeste 0 927.7 -- 86
2021-02-15 23:00:00 5.2 6 Sur 12 Sudeste 0 927.8 -- 83
2021-02-15 22:00:00 6.1 3 Sudeste 8 Sudeste 0 927.7 -- 81
2021-02-15 21:00:00 7.3 7 Sudeste 14 Sudoeste 0 927.4 -- 77
2021-02-15 20:00:00 8.9 6 Sur 18 Sur 0 927.2 -- 73
2021-02-15 19:00:00 11.3 8 Sudoeste 18 Sudoeste 0 926.8 -- 65
2021-02-15 18:00:00 14.3 9 Sudoeste 18 Sudoeste 0 926.4 -- 50
2021-02-15 17:00:00 16.2 8 Sudoeste 18 Sur 0 926.6 -- 44
2021-02-15 16:00:00 15.8 10 Sudoeste 15 Sudoeste 0 926.9 -- 43
2021-02-15 15:00:00 15.3 5 Sudoeste 14 Sur 0 927.5 -- 44
2021-02-15 14:00:00 13.7 6 Sudoeste 16 Sudoeste 0 928.2 -- 47
2021-02-15 13:00:00 12.4 9 Sudoeste 19 Sudoeste 0 928.9 -- 53
2021-02-15 12:00:00 10.7 12 Sudoeste 24 Sudoeste 0 929.7 -- 62
2021-02-15 11:00:00 9.2 11 Sudoeste 21 Sudoeste 0 929.9 -- 68
2021-02-15 10:00:00 6.5 3 Sudeste 8 Sudeste 0 929.9 -- 81
2021-02-15 09:00:00 2.4 3 Este 8 Sudeste 0 929.6 -- 96
2021-02-15 08:00:00 2.3 7 Sur 12 Sur 0 928.9 -- 93
2021-02-15 07:00:00 2.5 7 Sudeste 9 Sudeste 0 928.9 -- 90
2021-02-15 06:00:00 3.8 4 Sur 12 Sudeste 0 928.7 -- 87
2021-02-15 05:00:00 4.3 7 Sudeste 12 Sudeste 0 928.5 -- 87
2021-02-15 04:00:00 5.3 9 Sudeste 13 Sudeste 0 928.7 -- 84
2021-02-15 03:00:00 5.6 8 Sudeste 15 Sur 0 929 -- 84
2021-02-15 02:00:00 6.7 10 Sur 23 Sudoeste 0 929 -- 82
2021-02-15 01:00:00 6.4 6 Sur 15 Sur 0 929 -- 82
2021-02-15 00:00:00 6.8 4 Sur 16 Sudoeste 0 929 -- 81
2021-02-14 23:00:00 7.6 9 Sudoeste 17 Sur 0 928.8 -- 80
2021-02-14 22:00:00 7.5 7 Sur 19 Sur 0 928.5 -- 79
2021-02-14 21:00:00 8.1 8 Sur 17 Sur 0 927.9 -- 76
2021-02-14 20:00:00 9.3 5 Sur 18 Sudeste 0 927.6 -- 70
2021-02-14 19:00:00 10.6 11 Sudeste 27 Sudeste 0 926.8 0.6 71
2021-02-14 18:00:00 15.2 9 Sudoeste 18 Sudoeste 0 926.2 0 43
2021-02-14 17:00:00 15.9 6 Sur 12 Sur 0 925.8 -- 36
2021-02-14 16:00:00 15.8 5 Sur 14 Sur 0 926.2 -- 35
2021-02-14 15:00:00 14.6 6 Sudeste 13 Sudeste 0 926.2 -- 44
2021-02-14 14:00:00 13.7 4 Sur 15 Sudeste 0 926.6 -- 50
2021-02-14 13:00:00 12.1 5 Sudeste 13 Sudeste 0 927.1 -- 63
2021-02-14 12:00:00 8.8 5 Sur 12 Sur 0 927.5 -- 76
2021-02-14 11:00:00 5.4 6 Sudoeste 13 Sudoeste 0 927.4 -- 83
2021-02-14 10:00:00 3.9 5 Sur 9 Sudeste 0 927.4 -- 87
2021-02-14 09:00:00 1.4 7 Sudeste 13 Sudeste 0 927 -- 96
2021-02-14 08:00:00 -0.4 10 Sudeste 14 Sudeste 0 926.1 -- 96
2021-02-14 07:00:00 0.2 10 Sudeste 14 Sudeste 0 925.6 -- 97
2021-02-14 06:00:00 -0.3 4 Sudeste 9 Sudeste 0 925.6 -- 97
2021-02-14 05:00:00 -0.6 0 Calma 6 Sur 0 925.2 -- 95
2021-02-14 04:00:00 -0.5 0 Calma 5 Este 0 925.3 -- 95
2021-02-14 03:00:00 -0.2 0 Calma 5 Este 0 925.3 -- 95
2021-02-14 02:00:00 0.4 3 Nordeste 5 Sur 0 925.1 -- 94
2021-02-14 01:00:00 1.1 3 Sur 5 Sur 0 924.8 -- 92
2021-02-14 00:00:00 2.3 2 Este 5 Sudeste 0 924.8 -- 90
2021-02-13 23:00:00 4.4 3 Sur 8 Sudeste 0 924.4 -- 86
2021-02-13 22:00:00 5.3 3 Este 5 Oeste 0 924.4 -- 82
2021-02-13 21:00:00 6.5 4 Norte 11 Noroeste 0 923.9 -- 76
2021-02-13 20:00:00 7.6 2 Oeste 10 Norte 0 923.6 -- 71
2021-02-13 19:00:00 9.2 4 Norte 21 Noroeste 0 923.2 -- 62
2021-02-13 18:00:00 10.8 16 Noroeste 27 Noroeste 0 922.4 -- 52
2021-02-13 17:00:00 11 19 Noroeste 28 Noroeste 0 922.4 -- 55
2021-02-13 16:00:00 10.7 7 Norte 16 Nordeste 0 922.3 -- 59
2021-02-13 15:00:00 10.6 8 Norte 26 Oeste 0 922.3 -- 59
2021-02-13 14:00:00 10.8 9 Norte 22 Noroeste 0 922.5 -- 66
2021-02-13 13:00:00 10.9 8 Noroeste 25 Noroeste 0 922.8 -- 66
2021-02-13 08:00:00 0.6 3 Norte 9 Sudeste 0 922.2 0.9 95
2021-02-13 07:00:00 2.1 5 Sudeste 11 Este 0 921.9 0.9 95
2021-02-13 06:00:00 2.4 9 Sudeste 12 Sudeste 0 921.5 0.5 99
2021-02-13 05:00:00 1.1 3 Nordeste 10 Sudeste 0 921.3 0.6 95
2021-02-13 04:00:00 1.4 8 Sudeste 10 Sudeste 0 921 0.1 96
2021-02-13 03:00:00 1.5 3 Sudeste 10 Sudeste 0 921 0.5 95
2021-02-13 02:00:00 2.3 6 Sudeste 8 Sudeste 0 920.7 0.3 93
2021-02-13 01:00:00 3 5 Nordeste 8 Nordeste 0 920.9 1.1 92
2021-02-13 00:00:00 5 5 Oeste 12 Noroeste 0 920.5 1.1 85
2021-02-12 23:00:00 4.7 2 Sudeste 8 Sudeste 0 920.4 1.5 88
2021-02-12 22:00:00 6.2 3 Sur 12 Noroeste 0 919.8 1.9 85
2021-02-12 21:00:00 8.3 9 Noroeste 25 Noroeste 0 919.4 2.3 80
2021-02-12 20:00:00 9.4 19 Noroeste 39 Noroeste 0 918.9 2.3 77
2021-02-12 19:00:00 9.8 23 Noroeste 46 Noroeste 0 917.9 1.5 75
2021-02-12 18:00:00 9.9 27 Noroeste 48 Noroeste 0 917.1 1.1 73
2021-02-12 17:00:00 9.9 27 Noroeste 48 Noroeste 0 916.6 0.7 71
2021-02-12 16:00:00 9.9 30 Noroeste 54 Noroeste 0 916.4 0.4 72
2021-02-12 15:00:00 10.6 32 Noroeste 58 Noroeste 0 916 -0.3 68
2021-02-12 14:00:00 11.1 28 Noroeste 51 Noroeste 0.2 915.9 -0.2 66
2021-02-12 13:00:00 10.1 16 Noroeste 32 Noroeste 0 916 -0.1 77
2021-02-12 12:00:00 8.7 9 Oeste 14 Oeste 0 916.3 1 80
2021-02-12 11:00:00 8.4 12 Noroeste 59 Noroeste 1 916.1 1.4 76
2021-02-12 10:00:00 8.3 14 Noroeste 31 Noroeste 0.8 916.1 1.6 87
2021-02-12 09:00:00 8.1 8 Noroeste 17 Noroeste 1 915.3 -- 94
2021-02-12 08:00:00 8.2 6 Sudeste 9 Nordeste 0 914.7 -- 88
2021-02-12 07:00:00 8.2 6 Sudeste 15 Sur 0 914.5 -- 86
2021-02-12 06:00:00 9.1 8 Sudeste 12 Sudeste 0 914.9 -- 85
2021-02-12 05:00:00 8.4 6 Sur 14 Sudeste 0 914.8 -- 87
2021-02-12 04:00:00 8.1 6 Sudeste 16 Sudeste 0 915.3 -- 88
2021-02-12 03:00:00 8.1 4 Sur 13 Sur 0 915.6 -- 86
2021-02-12 02:00:00 7.9 9 Sudeste 14 Sudeste 0 916 -- 89
2021-02-12 01:00:00 8.5 7 Sudeste 9 Sudeste 0 916.5 -- 87
2021-02-12 00:00:00 9.9 4 Sudoeste 16 Sudeste 0 916.8 -- 82
2021-02-11 23:00:00 9.9 17 Sudeste 24 Sudeste 0 917.5 -- 83
2021-02-11 22:00:00 9 4 Sudeste 12 Sudoeste 0 917.2 -- 85
2021-02-11 21:00:00 8.3 2 Norte 8 Sudeste 0 917 -- 83
2021-02-11 20:00:00 9 4 Sur 14 Sudoeste 0 917.3 -- 79
2021-02-11 19:00:00 10.7 2 Norte 24 Oeste 0 917.1 -- 72
2021-02-11 18:00:00 12.2 15 Oeste 32 Oeste 0 917.2 -- 69
2021-02-11 17:00:00 13.3 18 Oeste 30 Oeste 0 916.8 -- 64
2021-02-11 16:00:00 14.1 13 Oeste 31 Oeste 0 916.6 -- 62
2021-02-11 15:00:00 13.9 14 Oeste 33 Oeste 0 916.8 -- 62
2021-02-11 14:00:00 13.9 14 Oeste 30 Noroeste 0 917 -- 61
2021-02-11 13:00:00 13.3 15 Oeste 29 Noroeste 0 917.4 -- 64
2021-02-11 12:00:00 11.1 6 Este 10 Este 0 917.8 -- 69
2021-02-11 11:00:00 8.4 6 Sudoeste 11 Sudoeste 0 917.8 -- 75
2021-02-11 10:00:00 5.6 7 Sur 10 Sur 0 917.6 -- 86
2021-02-11 09:00:00 3.3 4 Sudoeste 8 Sudeste 0 917.1 -- 89
2021-02-11 08:00:00 3.3 2 Noroeste 7 Norte 0 916.6 -- 86
2021-02-11 07:00:00 2.9 3 Sur 16 Sur 0 916.6 -- 88
2021-02-11 06:00:00 2.5 8 Sudeste 10 Sudeste 0 916.2 -- 90
2021-02-11 05:00:00 1.5 4 Sudeste 10 Sudeste 0 916.3 -- 90
2021-02-11 04:00:00 1.2 6 Sudeste 9 Sudeste 0 916.4 -- 92
2021-02-11 03:00:00 0.4 5 Sur 10 Sudeste 0 916.2 -- 93
2021-02-11 02:00:00 0.2 5 Sudeste 10 Sur 0 916.5 -- 92
2021-02-11 01:00:00 0.4 6 Sudeste 9 Sudeste 0 915.9 -- 90
2021-02-11 00:00:00 1.5 3 Este 12 Sudeste 0 915.4 -- 88
2021-02-10 23:00:00 1.6 3 Nordeste 12 Sur 0 915.4 -- 89
2021-02-10 22:00:00 2 7 Sur 10 Sur 0 914.7 -- 84
2021-02-10 21:00:00 2.9 8 Sudeste 11 Sur 0 913.8 -- 82
2021-02-10 20:00:00 4.5 6 Sur 9 Norte 0 913.2 -- 75
2021-02-10 19:00:00 6.8 4 Norte 19 Noroeste 0 912.8 -- 66
2021-02-10 18:00:00 9.7 13 Noroeste 29 Noroeste 0 911.7 -- 53
2021-02-10 17:00:00 10.4 18 Noroeste 41 Noroeste 0 911.2 -- 50
2021-02-10 16:00:00 10.4 22 Noroeste 40 Noroeste 0 910.3 -- 49
2021-02-10 15:00:00 9.8 22 Noroeste 47 Noroeste 0 909.7 -- 52
2021-02-10 14:00:00 8.4 23 Noroeste 42 Noroeste 0 909.2 -- 60
2021-02-10 13:00:00 8.2 26 Noroeste 51 Noroeste 0 909 -- 62
2021-02-10 12:00:00 6.8 29 Noroeste 50 Noroeste 0 908.1 -- 67
2021-02-10 11:00:00 6.2 20 Noroeste 39 Noroeste 0 906.7 -- 74
2021-02-10 10:00:00 5 15 Noroeste 26 Noroeste 0.2 905.5 -- 81
2021-02-10 09:00:00 4.3 12 Noroeste 20 Oeste 0 904.2 -- 82
2021-02-10 08:00:00 4 13 Noroeste 30 Noroeste 0 902.8 -- 81
2021-02-10 07:00:00 3.2 3 Sur 17 Noroeste 1.6 901.4 -- 94
2021-02-10 06:00:00 4.4 3 Este 10 Noroeste 1.4 900.6 -- 92
2021-02-10 05:00:00 4.8 9 Oeste 30 Oeste 2.6 901 -- 89
2021-02-10 04:00:00 6 17 Oeste 37 Sudoeste 0.4 901.8 -- 86
2021-02-10 03:00:00 5.6 16 Sudoeste 26 Sudoeste 0 901.6 -- 82
2021-02-10 02:00:00 5.2 14 Sudoeste 24 Sudoeste 0 902.4 -- 88
2021-02-10 01:00:00 4.6 10 Oeste 28 Noroeste 1 902.7 -- 89
2021-02-10 00:00:00 4.3 9 Oeste 35 Oeste 2.4 902.6 -- 92
2021-02-09 23:00:00 4 22 Oeste 65 Oeste 1.6 902.6 -- 88
2021-02-09 22:00:00 6.3 12 Oeste 23 Oeste 0 901.5 -- 83
2021-02-09 21:00:00 5.3 6 Sudoeste 21 Oeste 0.2 901.5 -- 88
2021-02-09 20:00:00 5.6 14 Oeste 28 Oeste 0 901.7 -- 83
2021-02-09 19:00:00 5.9 6 Oeste 18 Oeste 0 901.7 -- 81
2021-02-09 18:00:00 6.3 12 Oeste 52 Noroeste 1.2 901.3 -- 82
2021-02-09 17:00:00 9.1 24 Oeste 43 Sudoeste 0 900.9 -- 75
2021-02-09 16:00:00 10.6 31 Sudoeste 57 Sudoeste 0 900.2 -- 61
2021-02-09 15:00:00 10.7 26 Sudoeste 49 Sudoeste 0 900.4 -- 58
2021-02-09 14:00:00 10.7 21 Sudoeste 51 Sudoeste 0 900.8 -- 60
2021-02-09 13:00:00 11.3 29 Sudoeste 50 Sudoeste 0 901.7 -- 58
2021-02-09 12:00:00 9.9 15 Sudoeste 41 Sudoeste 0 902.9 -- 64
2021-02-09 11:00:00 8.5 21 Sudoeste 42 Sudoeste 0 903.2 -- 67
2021-02-09 10:00:00 6 7 Sur 17 Sudoeste 0 903.9 -- 76
2021-02-09 09:00:00 5.5 10 Sudoeste 40 Sudoeste 0 904.6 -- 75
2021-02-09 08:00:00 5.2 15 Sudoeste 29 Oeste 0 904.8 -- 76
2021-02-09 07:00:00 5.1 5 Sudeste 21 Sudoeste 0 905.5 -- 75
2021-02-09 06:00:00 5.7 8 Sudoeste 36 Sudoeste 0 905.7 -- 73
2021-02-09 05:00:00 5.9 16 Oeste 40 Oeste 0 905.5 -- 77
2021-02-09 04:00:00 5.9 18 Oeste 28 Oeste 0 905.6 -- 78
2021-02-09 03:00:00 6.3 9 Sudoeste 20 Oeste 0 905.9 -- 78
2021-02-09 02:00:00 5.4 6 Sudoeste 18 Sudoeste 0 905.9 -- 82
2021-02-09 01:00:00 6 8 Sudoeste 17 Oeste 0 905.6 -- 79
2021-02-09 00:00:00 6.1 7 Sudoeste 29 Oeste 0 905 -- 78
2021-02-08 23:00:00 6.2 12 Oeste 30 Oeste 0 904.4 -- 79
2021-02-08 22:00:00 5.7 12 Oeste 34 Oeste 0 904.1 -- 80
2021-02-08 21:00:00 6.1 13 Oeste 35 Oeste 0 903.4 -- 76
2021-02-08 20:00:00 6.6 18 Oeste 36 Oeste 0 902.6 -- 73
2021-02-08 19:00:00 6.9 12 Oeste 34 Oeste 0 901.6 -- 75
2021-02-08 18:00:00 7.5 17 Oeste 38 Oeste 0 900.9 -- 71
2021-02-08 17:00:00 8.9 17 Oeste 45 Oeste 0 900.5 -- 65
2021-02-08 16:00:00 7.4 21 Oeste 42 Oeste 0 900.2 -- 77
2021-02-08 15:00:00 9.6 24 Oeste 52 Oeste 0 899.8 -- 60
2021-02-08 14:00:00 8.6 16 Oeste 52 Oeste 0 900.1 -- 67
2021-02-08 13:00:00 9.4 23 Oeste 49 Oeste 0 900.6 -- 60
2021-02-08 12:00:00 7.9 21 Oeste 37 Oeste 0 901 -- 69
2021-02-08 11:00:00 6.6 15 Oeste 36 Oeste 0 900.9 -- 76
2021-02-08 10:00:00 5.7 12 Sudoeste 28 Sudoeste 0 899.9 -- 78
2021-02-08 09:00:00 5.5 14 Sudoeste 30 Sudoeste 0.2 900 -- 79
2021-02-08 08:00:00 5.2 7 Sudoeste 21 Sudoeste 0.8 900.2 -- 87
2021-02-08 07:00:00 5.4 8 Sur 22 Sudoeste 0 900.2 -- 82
2021-02-08 06:00:00 5.2 6 Sur 15 Sur 0 900.3 -- 79
2021-02-08 05:00:00 5.6 6 Sudeste 20 Sudoeste 0 901.1 -- 78
2021-02-08 04:00:00 6 12 Sudoeste 27 Sudoeste 0 901.9 -- 75
2021-02-08 03:00:00 5.8 13 Sudoeste 42 Sudoeste 0 902.5 -- 77
2021-02-08 02:00:00 5.7 25 Oeste 44 Oeste 0 902.5 -- 78
2021-02-08 01:00:00 6.1 7 Sudoeste 21 Sudoeste 0 903.3 -- 76
2021-02-08 00:00:00 6 9 Oeste 25 Oeste 0 903.7 -- 76
2021-02-07 23:00:00 6.4 12 Oeste 26 Oeste 0 904.1 -- 74
2021-02-07 22:00:00 6.7 12 Oeste 28 Oeste 0 904.4 -- 70
2021-02-07 21:00:00 6.5 4 Noroeste 31 Oeste 0 904.4 -- 73
2021-02-07 20:00:00 6.6 5 Oeste 17 Sudoeste 0 904.4 -- 64
2021-02-07 19:00:00 7 12 Oeste 31 Oeste 0 904.1 -- 60
2021-02-07 18:00:00 8.2 17 Oeste 31 Oeste 0 903.6 -- 52
2021-02-07 17:00:00 8.3 10 Noroeste 28 Oeste 0 903.4 -- 51
2021-02-07 16:00:00 8.7 15 Noroeste 31 Noroeste 0 903.8 -- 46
2021-02-07 15:00:00 7.9 21 Oeste 39 Noroeste 0 904 -- 43
2021-02-07 14:00:00 7.2 22 Oeste 39 Oeste 0 904.5 -- 44
2021-02-07 13:00:00 6.9 18 Noroeste 33 Noroeste 0 905 -- 54
2021-02-07 12:00:00 5.9 17 Oeste 31 Oeste 0 905.4 -- 59
2021-02-07 11:00:00 4.6 18 Noroeste 30 Noroeste 0 905.3 -- 70
2021-02-07 10:00:00 3.5 10 Oeste 19 Oeste 0 905.2 -- 76
2021-02-07 09:00:00 2.7 5 Noroeste 14 Oeste 0 905.1 -- 84
2021-02-07 08:00:00 2.3 5 Oeste 10 Noroeste 0 904.7 -- 88
2021-02-07 07:00:00 2.1 0 Calma 10 Nordeste 0 904.3 -- 88
2021-02-07 06:00:00 2.7 5 Norte 10 Norte 0 904.7 -- 87
2021-02-07 05:00:00 2.9 4 Norte 14 Noroeste 0 904.7 -- 85
2021-02-07 04:00:00 3 4 Noroeste 10 Noroeste 0 904.6 -- 86
2021-02-07 03:00:00 3.3 4 Noroeste 14 Norte 0 904.6 -- 89
2021-02-07 02:00:00 3.5 6 Norte 19 Norte 0 904.7 -- 88
2021-02-07 01:00:00 3.9 6 Norte 14 Nordeste 0 904.6 -- 88
2021-02-07 00:00:00 4.3 4 Norte 9 Nordeste 0 904.4 -- 90
2021-02-06 23:00:00 4.3 5 Norte 22 Nordeste 0 904.5 -- 91
2021-02-06 22:00:00 4.8 10 Norte 22 Nordeste 0 904.2 -- 89
2021-02-06 21:00:00 5 4 Norte 15 Norte 0 903.7 -- 91
2021-02-06 20:00:00 5 9 Norte 31 Norte 0.2 903.4 -- 89
2021-02-06 19:00:00 5.1 18 Nordeste 33 Norte 0 902.7 -- 91
2021-02-06 18:00:00 8.6 6 Sudeste 15 Sur 0 901.5 -- 80
2021-02-06 17:00:00 9.1 8 Sur 19 Sudeste 0.2 901.1 -- 81
2021-02-06 16:00:00 8.3 12 Sudeste 21 Sur 0.6 900.8 -- 84
2021-02-06 15:00:00 10.7 9 Oeste 22 Sudoeste 0 900.5 -- 60
2021-02-06 14:00:00 11.1 13 Oeste 22 Oeste 0 900.8 -- 60
2021-02-06 13:00:00 10.9 8 Sudoeste 19 Sudoeste 0 901.3 -- 64
2021-02-06 12:00:00 10.7 12 Sudoeste 20 Sudoeste 0 901.7 -- 66
2021-02-06 11:00:00 9.3 9 Sudoeste 18 Sudoeste 0 901.5 -- 71
2021-02-06 10:00:00 7.1 5 Sudoeste 10 Sur 0 901.6 -- 87
2021-02-06 09:00:00 6.1 6 Sudoeste 12 Sudoeste 0 901.7 -- 89
2021-02-06 08:00:00 6 8 Sudoeste 14 Sur 0 901.3 -- 91
2021-02-06 07:00:00 6.1 8 Sur 18 Sudoeste 0 901.2 -- 89
2021-02-06 06:00:00 6.8 9 Sudoeste 19 Sudoeste 0 901 -- 90
2021-02-06 05:00:00 7 3 Oeste 27 Este 1.2 900.8 -- 91
2021-02-06 04:00:00 6.8 10 Sudeste 24 Sudoeste 2.4 902.5 -- 93
2021-02-06 03:00:00 6.9 7 Sudeste 10 Sudeste 0 902.1 -- 86
2021-02-06 02:00:00 8.2 3 Noroeste 16 Sudoeste 0 902.5 -- 79
2021-02-06 01:00:00 7.5 7 Sudeste 13 Sur 0 904.2 -- 82
2021-02-06 00:00:00 7.8 6 Sudeste 30 Sudoeste 0 903.7 -- 80
2021-02-05 23:00:00 8 9 Sur 21 Sur 0 903.6 -- 81
2021-02-05 22:00:00 7 6 Sudeste 11 Sudeste 0 903 -- 79
2021-02-05 21:00:00 8.1 9 Sudeste 19 Sur 0 902.8 -- 74
2021-02-05 20:00:00 10.3 10 Sur 14 Sudeste 0 902.8 -- 62
2021-02-05 19:00:00 12.2 6 Sur 17 Sur 0 902.8 -- 54
2021-02-05 18:00:00 15.1 6 Sur 30 Sur 0 902.9 -- 45
2021-02-05 17:00:00 16.6 10 Sur 31 Sur 0 902.9 -- 40
2021-02-05 16:00:00 17.1 16 Sur 40 Sur 0 903.3 -- 37
2021-02-05 15:00:00 17.5 21 Sur 42 Sur 0 903.4 -- 36
2021-02-05 14:00:00 17.4 22 Sur 46 Sur 0 904 -- 37
2021-02-05 13:00:00 16.6 19 Sur 42 Sur 0 905.3 -- 39
2021-02-05 12:00:00 14.5 10 Sur 19 Sur 0 905.8 -- 54
2021-02-05 11:00:00 11.1 12 Sur 20 Sur 0 906.5 -- 68
2021-02-05 10:00:00 7.4 11 Sudeste 17 Sudeste 0 906.9 -- 80
2021-02-05 09:00:00 5.8 12 Sudeste 19 Sur 0 907.2 -- 86
2021-02-05 08:00:00 4.9 12 Sur 18 Sudeste 0 907.4 -- 92
2021-02-05 07:00:00 4.5 5 Sudeste 9 Sudeste 0 907.4 -- 94
2021-02-05 06:00:00 4 2 Sudoeste 9 Sur 0 908 -- 91
2021-02-05 05:00:00 3.5 7 Sur 11 Sur 0 908.8 -- 94
2021-02-05 04:00:00 2.9 3 Sudoeste 8 Sudeste 0 908.9 -- 92
2021-02-05 03:00:00 3.5 0 Calma 5 Sudeste 0 909.4 -- 88
2021-02-05 02:00:00 5 2 Sur 9 Sudeste 0 909.7 -- 85
2021-02-05 01:00:00 5.9 4 Sur 10 Sudeste 0 910.2 -- 85
2021-02-05 00:00:00 6.6 8 Sudeste 10 Noroeste 0 910.5 -- 84
2021-02-04 23:00:00 7.8 7 Sur 16 Sur 0 910.4 -- 80
2021-02-04 22:00:00 8.8 7 Sur 12 Sur 0 909.9 -- 75
2021-02-04 21:00:00 9.2 5 Sudeste 12 Sudeste 0 909.3 -- 74
2021-02-04 20:00:00 10.5 7 Sur 12 Sur 0 909.2 -- 65
2021-02-04 19:00:00 13.5 6 Sudoeste 14 Sudoeste 0 908.5 -- 53
2021-02-04 18:00:00 15.6 10 Sudoeste 23 Sudoeste 0 908 -- 45
2021-02-04 17:00:00 17.4 13 Sur 42 Sur 0 907.5 -- 39
2021-02-04 16:00:00 18.6 20 Sur 39 Sur 0 907.2 -- 33
2021-02-04 15:00:00 18.2 17 Sur 37 Sur 0 907.5 -- 35
2021-02-04 14:00:00 17.3 13 Sur 26 Sudoeste 0 907.8 -- 35
2021-02-04 13:00:00 15.2 6 Sur 13 Sur 0 909.2 -- 53
2021-02-04 12:00:00 11.3 4 Sudoeste 12 Sur 0 910.7 -- 73
2021-02-04 11:00:00 7.8 3 Sur 6 Sur 0 911.2 -- 88
2021-02-04 10:00:00 6.4 5 Sur 10 Sudeste 0 911.5 -- 90
2021-02-04 09:00:00 5 5 Sudeste 10 Sudeste 0 911.6 -- 95
2021-02-04 08:00:00 4.5 2 Sudoeste 4 Sur 0 911.3 -- 93
2021-02-04 07:00:00 5 4 Sudeste 7 Sudeste 0 911.4 -- 91
2021-02-04 06:00:00 5.1 2 Oeste 7 Sur 0 911.6 -- 92
2021-02-04 05:00:00 5.8 5 Sur 7 Sudeste 0 911.8 -- 90
2021-02-04 04:00:00 5.9 5 Sudeste 9 Sudeste 0 912.1 -- 89
2021-02-04 03:00:00 6.1 5 Sudeste 7 Sudeste 0 912.5 -- 87
2021-02-04 02:00:00 6.3 6 Sudeste 8 Sudeste 0 912.4 -- 86
2021-02-04 01:00:00 6.1 4 Sudeste 7 Sudeste 0 913 -- 86
2021-02-04 00:00:00 6.6 3 Sudeste 8 Sudeste 0 912.8 -- 84
2021-02-03 23:00:00 7.6 4 Sudeste 12 Sur 0 912.8 -- 80
2021-02-03 22:00:00 8.6 5 Sur 13 Sur 0 912.8 -- 76
2021-02-03 21:00:00 9.6 5 Sur 23 Oeste 0 912.8 -- 73
2021-02-03 20:00:00 11.6 11 Oeste 26 Sudoeste 0 912.5 -- 65
2021-02-03 19:00:00 11.6 7 Sudoeste 20 Sudoeste 0 912.5 -- 66
2021-02-03 18:00:00 13.3 11 Sudoeste 24 Oeste 0 912.3 -- 60
2021-02-03 17:00:00 13.3 17 Oeste 32 Oeste 0 912.4 -- 61
2021-02-03 16:00:00 13.5 17 Oeste 34 Oeste 0 912.3 -- 61
2021-02-03 15:00:00 15 20 Oeste 35 Sudoeste 0 912.2 -- 54
2021-02-03 14:00:00 13.7 15 Oeste 32 Sudoeste 0 912.6 -- 59
2021-02-03 13:00:00 13.1 18 Sudoeste 37 Oeste 0 913.3 -- 60
2021-02-03 12:00:00 12.2 18 Oeste 36 Oeste 0 913.7 -- 65
2021-02-03 11:00:00 9.2 13 Sur 26 Sudoeste 0 914 -- 72
2021-02-03 10:00:00 5.6 10 Sur 18 Sur 0 913.6 -- 81
2021-02-03 09:00:00 3.9 7 Sur 26 Sudoeste 0 913.5 -- 85
2021-02-03 08:00:00 5 17 Sudoeste 28 Sudoeste 0 912.8 -- 81
2021-02-03 07:00:00 6.6 11 Sudoeste 30 Sudoeste 0 912.4 -- 76
2021-02-03 06:00:00 7.3 14 Sudoeste 25 Sudoeste 0 912.4 -- 75
2021-02-03 05:00:00 7.3 12 Sur 33 Sudoeste 0 912.5 -- 75
2021-02-03 04:00:00 7.9 10 Sudoeste 29 Sur 0 912.9 -- 74
2021-02-03 03:00:00 5.6 8 Sur 27 Sudeste 0 913 -- 82
2021-02-03 02:00:00 4.5 14 Sudeste 21 Sudeste 0 913.4 -- 84
2021-02-03 01:00:00 3.9 12 Sudeste 15 Sudeste 0 913.5 -- 89
2021-02-03 00:00:00 3.9 3 Sudeste 10 Sudeste 0 913.8 -- 86
2021-02-02 23:00:00 5.8 5 Sur 22 Sudoeste 0 913.7 -- 77
2021-02-02 22:00:00 10.2 12 Sudoeste 21 Sudoeste 0 913.8 -- 67
2021-02-02 21:00:00 9.9 9 Noroeste 29 Sudoeste 0 914 -- 68
2021-02-02 20:00:00 10.1 18 Oeste 31 Sudoeste 0 914.2 -- 67
2021-02-02 19:00:00 10.3 5 Este 18 Norte 0 913.8 -- 71
2021-02-02 18:00:00 12.7 5 Noroeste 26 Oeste 0 913.8 -- 65
2021-02-02 17:00:00 13.9 15 Oeste 35 Noroeste 0 913.5 -- 60
2021-02-02 16:00:00 14.3 17 Oeste 33 Oeste 0 914 -- 58
2021-02-02 15:00:00 14.1 21 Oeste 38 Oeste 0 914.3 -- 57
2021-02-02 14:00:00 13.5 17 Oeste 31 Oeste 0 915.2 -- 62
2021-02-02 13:00:00 11.8 19 Oeste 34 Sudoeste 0 916 -- 67
2021-02-02 12:00:00 11 12 Oeste 37 Oeste 0 916.8 -- 72
2021-02-02 11:00:00 10.1 18 Oeste 28 Noroeste 0 917 -- 76
2021-02-02 10:00:00 8.9 8 Oeste 17 Oeste 0 916.5 -- 82
2021-02-02 09:00:00 6.1 7 Sur 16 Sudoeste 0 916.4 -- 92
2021-02-02 08:00:00 4.9 6 Sur 10 Sur 0 916 -- 91
2021-02-02 07:00:00 6.4 6 Sur 14 Sudoeste 0 915.7 -- 86
2021-02-02 06:00:00 8 9 Sudoeste 17 Sudoeste 0 915.9 -- 84
2021-02-02 05:00:00 7.3 2 Noroeste 19 Oeste 0 915.7 -- 85
2021-02-02 04:00:00 7.2 10 Oeste 18 Oeste 0 915.5 -- 85
2021-02-02 03:00:00 7.8 7 Oeste 24 Noroeste 0 915.4 -- 81
2021-02-02 02:00:00 7.9 5 Oeste 19 Noroeste 0 915.5 -- 80
2021-02-02 01:00:00 8.6 6 Norte 16 Norte 0 915.3 -- 77
2021-02-02 00:00:00 8.5 5 Nordeste 16 Noroeste 0 914.9 -- 77
2021-02-01 23:00:00 8.2 5 Sudeste 14 Sudeste 0 915.2 -- 75
2021-02-01 22:00:00 9.2 6 Noroeste 23 Noroeste 0 914.8 -- 71
2021-02-01 21:00:00 9.5 13 Noroeste 22 Noroeste 0 914.6 -- 70
2021-02-01 20:00:00 10.2 14 Noroeste 30 Noroeste 0 914 -- 66
2021-02-01 19:00:00 11.2 21 Noroeste 40 Noroeste 0 913.5 -- 62
2021-02-01 18:00:00 12.4 23 Noroeste 40 Noroeste 0 912.7 -- 61
2021-02-01 17:00:00 14.1 15 Noroeste 48 Noroeste 0 912.1 -- 57
2021-02-01 16:00:00 15 26 Noroeste 46 Noroeste 0 911.6 -- 54
2021-02-01 15:00:00 13.5 23 Noroeste 40 Noroeste 0 911.9 -- 59
2021-02-01 14:00:00 13.9 24 Noroeste 49 Noroeste 0 911.6 -- 55
2021-02-01 13:00:00 13.3 25 Noroeste 46 Oeste 0 911.6 -- 56
2021-02-01 12:00:00 13.4 19 Oeste 39 Noroeste 0 911.6 -- 55
2021-02-01 11:00:00 11 22 Oeste 41 Noroeste 0 911.6 -- 58
2021-02-01 10:00:00 9.5 16 Oeste 30 Noroeste 0 911.1 -- 61
2021-02-01 09:00:00 8.7 14 Noroeste 27 Noroeste 0 910.2 -- 64
2021-02-01 08:00:00 8.7 10 Noroeste 36 Noroeste 0 909.7 -- 65
2021-02-01 07:00:00 9.1 17 Noroeste 36 Noroeste 0 909.2 -- 63
2021-02-01 06:00:00 9.3 23 Noroeste 54 Noroeste 0 908.9 -- 62
2021-02-01 05:00:00 9.7 26 Noroeste 49 Oeste 0 908.5 -- 59
2021-02-01 04:00:00 10 26 Noroeste 48 Oeste 0 908.3 -- 58
2021-02-01 03:00:00 9.8 17 Oeste 48 Noroeste 0 908.2 -- 62
2021-02-01 02:00:00 9.9 16 Oeste 45 Noroeste 0 908 -- 66
2021-02-01 01:00:00 10.2 21 Oeste 46 Noroeste 0 907.7 -- 64
2021-02-01 00:00:00 10.2 19 Oeste 39 Oeste 0 908 -- 70
2021-01-31 23:00:00 10.5 19 Oeste 39 Oeste 0 908.6 -- 73
2021-01-31 22:00:00 10.3 10 Oeste 26 Oeste 0 908.4 -- 77
2021-01-31 21:00:00 9.7 5 Noroeste 18 Sudoeste 0 908.3 -- 80
2021-01-31 20:00:00 10.1 10 Oeste 22 Oeste 0 908.5 -- 78
2021-01-31 19:00:00 10.2 10 Oeste 31 Sudoeste 0 909 -- 81
2021-01-31 18:00:00 10.4 15 Oeste 40 Oeste 0 908.9 -- 79
2021-01-31 17:00:00 11.3 15 Oeste 40 Oeste 0 908.5 -- 73
2021-01-31 16:00:00 11.9 17 Noroeste 43 Noroeste 0 908.7 -- 70
2021-01-31 15:00:00 11.3 22 Noroeste 41 Oeste 0 908.7 -- 68
2021-01-31 14:00:00 10.6 19 Oeste 41 Oeste 0 909.1 -- 68
2021-01-31 13:00:00 10 23 Oeste 40 Oeste 0 909.8 -- 66
2021-01-31 12:00:00 8.4 20 Noroeste 37 Noroeste 0 910.6 -- 67
2021-01-31 11:00:00 7.8 15 Noroeste 41 Noroeste 0 910.7 -- 70
2021-01-31 10:00:00 7.4 24 Noroeste 41 Noroeste 0 910.1 -- 68
2021-01-31 09:00:00 6.1 19 Noroeste 49 Noroeste 0 909.9 -- 71
2021-01-31 08:00:00 5.8 28 Noroeste 58 Noroeste 0 909.2 -- 71
2021-01-31 07:00:00 5.8 32 Noroeste 51 Noroeste 0 908.7 -- 72
2021-01-31 06:00:00 6.5 31 Noroeste 51 Noroeste 0 908.9 -- 69
2021-01-31 05:00:00 6.6 22 Oeste 49 Noroeste 0 908.2 -- 70
2021-01-31 04:00:00 6.7 29 Noroeste 59 Oeste 0 908.5 -- 67
2021-01-31 03:00:00 6.6 23 Noroeste 39 Oeste 0 908.4 -- 68
2021-01-31 02:00:00 6.3 22 Noroeste 45 Noroeste 0 908.6 -- 70
2021-01-31 01:00:00 6.2 33 Noroeste 53 Noroeste 0 908.5 -- 68
2021-01-31 00:00:00 6.2 21 Oeste 41 Oeste 0 908 -- 72
2021-01-30 23:00:00 6 17 Noroeste 44 Oeste 0 908.2 -- 79
2021-01-30 22:00:00 5.5 17 Oeste 39 Oeste 0 908 -- 82
2021-01-30 21:00:00 6 17 Noroeste 53 Oeste 0.6 907.8 -- 83
2021-01-30 20:00:00 7.2 21 Oeste 54 Oeste 0 907.4 -- 65
2021-01-30 19:00:00 7.5 27 Oeste 46 Oeste 0 907.4 -- 65
2021-01-30 18:00:00 8.4 19 Oeste 41 Oeste 0 906.9 -- 61
2021-01-30 17:00:00 9.1 28 Oeste 53 Noroeste 0.2 906.9 -- 57
2021-01-30 16:00:00 9 24 Noroeste 53 Oeste 0.6 907.3 -- 61
2021-01-30 15:00:00 10.7 27 Oeste 68 Oeste 0.2 907.1 -- 60
2021-01-30 14:00:00 10.7 24 Oeste 64 Oeste 0 907.8 -- 59
2021-01-30 13:00:00 9.3 27 Noroeste 54 Oeste 0 908.5 -- 74
2021-01-30 12:00:00 10.2 26 Noroeste 50 Oeste 0 909.1 -- 66
2021-01-30 11:00:00 8.9 13 Oeste 31 Oeste 0.2 909.2 -- 80
2021-01-30 10:00:00 8.2 19 Oeste 46 Oeste 0 909.6 -- 82
2021-01-30 09:00:00 8.2 15 Oeste 37 Oeste 0.6 909.6 -- 79
2021-01-30 08:00:00 9.1 12 Oeste 39 Oeste 0.2 910.9 -- 86
2021-01-30 07:00:00 10.4 21 Oeste 39 Oeste 0 911.2 -- 77
2021-01-30 06:00:00 10.1 14 Oeste 23 Oeste 0 910 -- 79
2021-01-30 05:00:00 9.8 6 Oeste 27 Sudoeste 0 911.4 -- 80
2021-01-30 04:00:00 9.1 14 Oeste 21 Oeste 0 911.9 -- 81
2021-01-30 03:00:00 7 7 Sudeste 15 Sudeste 0 912.4 -- 88
2021-01-30 02:00:00 7.7 5 Sur 15 Sudeste 0 913.9 -- 86
2021-01-30 01:00:00 7.4 5 Sudeste 10 Sudeste 0 915.3 -- 89
2021-01-30 00:00:00 7.4 4 Nordeste 14 Este 0 915.9 -- 87
2021-01-29 23:00:00 7.6 2 Nordeste 12 Este 0 916.2 -- 85
2021-01-29 22:00:00 6.2 5 Sudeste 10 Sudeste 0 916.3 -- 91
2021-01-29 21:00:00 7.6 0 Calma 4 Sudeste 0 916.7 -- 87
2021-01-29 20:00:00 9.5 0 Calma 5 Noroeste 0 917.2 -- 82
2021-01-29 19:00:00 12.1 3 Noroeste 6 Noroeste 0 917 -- 74
2021-01-29 18:00:00 15.1 4 Noroeste 18 Noroeste 0 916.8 -- 65
2021-01-29 17:00:00 15.7 10 Noroeste 23 Noroeste 0 916.9 -- 62
2021-01-29 16:00:00 15.2 8 Norte 19 Noroeste 0 917.2 -- 65
2021-01-29 15:00:00 15.9 9 Noroeste 31 Oeste 0 917.4 -- 62
2021-01-29 14:00:00 16.1 18 Oeste 36 Oeste 0 917.7 -- 58
2021-01-29 13:00:00 14.7 19 Noroeste 33 Noroeste 0 918.6 -- 62
2021-01-29 12:00:00 13.1 12 Oeste 28 Noroeste 0 919.5 -- 72
2021-01-29 11:00:00 9.8 3 Este 12 Sur 0 919.7 -- 85
2021-01-29 10:00:00 6.3 9 Sudeste 14 Sudoeste 0 919.8 -- 96
2021-01-29 09:00:00 3.7 6 Sudeste 10 Este 0 920 -- 99
2021-01-29 08:00:00 2.8 4 Norte 10 Sur 0 919.8 -- 96
2021-01-29 07:00:00 3.4 3 Noroeste 9 Noroeste 0 919.7 -- 97
2021-01-29 06:00:00 3.4 3 Oeste 11 Sur 0 919.7 -- 95
2021-01-29 05:00:00 3.5 5 Sur 8 Norte 0 920 -- 95
2021-01-29 04:00:00 4.3 5 Nordeste 8 Este 0 920.1 -- 97
2021-01-29 03:00:00 5.1 3 Sur 8 Sudeste 0 919.7 -- 92
2021-01-29 02:00:00 5.8 3 Sudeste 10 Sur 0 920.5 -- 89
2021-01-29 01:00:00 8 4 Este 24 Oeste 0 920.7 -- 85
2021-01-29 00:00:00 10.2 8 Sudoeste 20 Sudoeste 0 920.6 -- 80
2021-01-28 23:00:00 7.5 5 Sudeste 15 Oeste 0 920.5 -- 90
2021-01-28 22:00:00 8.7 6 Sudoeste 10 Sudoeste 0 920.4 -- 88
2021-01-28 21:00:00 9.3 0 Calma 10 Noroeste 0 920.7 -- 85
2021-01-28 20:00:00 10.5 4 Sudeste 6 Sur 0 920.6 -- 80
2021-01-28 19:00:00 13.2 3 Sur 9 Norte 0 920.3 -- 71
2021-01-28 18:00:00 16 6 Norte 18 Norte 0 920 -- 61
2021-01-28 17:00:00 18.1 10 Noroeste 25 Sudoeste 0 920.3 -- 54
2021-01-28 16:00:00 19 12 Oeste 29 Oeste 0 920.3 -- 51
2021-01-28 15:00:00 18.8 15 Noroeste 28 Oeste 0 920.5 -- 52
2021-01-28 14:00:00 18.2 10 Oeste 24 Oeste 0 921.2 -- 56
2021-01-28 13:00:00 15.5 6 Este 9 Sudeste 0 922.3 -- 67
2021-01-28 12:00:00 11.1 0 Calma 5 Sudeste 0 923.2 -- 82
2021-01-28 11:00:00 7.9 3 Sur 11 Sur 0 923.1 -- 93
2021-01-28 10:00:00 3 2 Sudoeste 8 Nordeste 0 922.7 -- 100
2021-01-28 09:00:00 1.9 3 Sudoeste 5 Sur 0 922.6 -- 99
2021-01-28 08:00:00 2 2 Oeste 8 Sudeste 0 922.6 -- 98
2021-01-28 07:00:00 2.3 3 Sudoeste 10 Sur 0 922.7 -- 98
2021-01-28 06:00:00 1.9 5 Sur 9 Sudeste 0 922.5 -- 98
2021-01-28 05:00:00 2.4 4 Sudoeste 8 Sur 0 922.8 -- 97
2021-01-28 04:00:00 2.8 5 Sur 9 Sudoeste 0 923.2 -- 97
2021-01-28 03:00:00 3.3 3 Sur 7 Nordeste 0 923.3 -- 98
2021-01-28 02:00:00 3.9 0 Calma 7 Sur 0 923.2 -- 97
2021-01-28 01:00:00 5.2 4 Sudeste 10 Sudeste 0 923.6 -- 94
2021-01-28 00:00:00 6.1 4 Sudoeste 9 Sudoeste 0 923.9 -- 93
2021-01-27 23:00:00 7.6 4 Sur 12 Sur 0 923.7 -- 92
2021-01-27 22:00:00 8 8 Sudeste 11 Sudeste 0 923.4 -- 92
2021-01-27 21:00:00 9.2 6 Sur 9 Norte 0 923.4 -- 87
2021-01-27 20:00:00 10.6 4 Sudeste 9 Nordeste 0 923.3 -- 84
2021-01-27 19:00:00 12.1 6 Norte 24 Noroeste 0 922.7 -- 80
2021-01-27 18:00:00 14 13 Noroeste 26 Noroeste 0 922.3 -- 73
2021-01-27 17:00:00 15.6 12 Noroeste 26 Noroeste 0 922.1 -- 66
2021-01-27 16:00:00 15.7 13 Noroeste 33 Noroeste 0 921.8 -- 62
2021-01-27 15:00:00 15 18 Noroeste 32 Noroeste 0 921.8 -- 67
2021-01-27 14:00:00 14.4 9 Norte 24 Norte 0 922.2 -- 74
2021-01-27 13:00:00 14.2 10 Noroeste 30 Noroeste 0 922.6 -- 75
2021-01-27 12:00:00 13 7 Norte 33 Noroeste 0 923 -- 84
2021-01-27 11:00:00 12.1 10 Noroeste 20 Oeste 0 922.4 -- 87
2021-01-27 10:00:00 11.1 4 Nordeste 13 Noroeste 0 922.2 -- 91
2021-01-27 09:00:00 10.7 6 Norte 14 Oeste 0 921.7 -- 91
2021-01-27 08:00:00 10.1 4 Sudoeste 14 Noroeste 0 921.3 -- 92
2021-01-27 07:00:00 10.3 8 Noroeste 13 Noroeste 0 921.1 -- 91
2021-01-27 06:00:00 9.9 2 Nordeste 6 Este 0 921 -- 92
2021-01-27 05:00:00 9.2 3 Norte 13 Sur 0 921 -- 93
2021-01-27 04:00:00 9 6 Sudeste 13 Sur 0 921 -- 93
2021-01-27 03:00:00 9.5 5 Sur 15 Sudeste 0 921.1 -- 91
2021-01-27 02:00:00 8.9 7 Sudeste 9 Sudeste 0 921.4 -- 95
2021-01-27 01:00:00 9 3 Este 8 Sudoeste 0 921.9 -- 94
2021-01-27 00:00:00 9.3 4 Sudoeste 6 Sudoeste 0 921.7 -- 94
2021-01-26 23:00:00 9.5 3 Norte 9 Nordeste 0 921.7 -- 93
2021-01-26 22:00:00 9.3 6 Nordeste 12 Norte 0 921.3 -- 93
2021-01-26 21:00:00 9.6 3 Nordeste 8 Nordeste 0 921.6 -- 93
2021-01-26 20:00:00 9.8 2 Sudoeste 4 Oeste 0 921.3 -- 93
2021-01-26 19:00:00 10.4 3 Nordeste 14 Noroeste 0 921 -- 91
2021-01-26 18:00:00 11.4 10 Noroeste 20 Noroeste 0 920.4 -- 83
2021-01-26 17:00:00 11.4 10 Oeste 19 Oeste 0 920 -- 85
2021-01-26 16:00:00 10.5 4 Sur 11 Sur 0 920.2 -- 87
2021-01-26 15:00:00 10 4 Sur 12 Sur 0 920.2 -- 87
2021-01-26 14:00:00 9 6 Sur 14 Sur 0 920.7 -- 90
2021-01-26 13:00:00 5.6 5 Sudeste 8 Sudeste 0 921.2 -- 97
2021-01-26 12:00:00 3.5 0 Calma 5 Oeste 0 921.6 -- 97
2021-01-26 11:00:00 1.8 4 Oeste 9 Sudoeste 0 921.5 -- 99
2021-01-26 10:00:00 0.2 5 Sur 11 Sur 0 920.9 -- 100
2021-01-26 09:00:00 -0.5 8 Sur 10 Sudeste 0 920.1 -- 100
2021-01-26 08:00:00 -0.5 5 Sur 11 Sur 0 919.5 -- 99
2021-01-26 07:00:00 -0.8 0 Calma 8 Sudeste 0 919.4 -- 99
2021-01-26 06:00:00 -0.6 5 Sudeste 6 Sudeste 0 918.8 -- 100
2021-01-26 05:00:00 0.3 3 Nordeste 5 Nordeste 0 918.4 -- 99
2021-01-26 04:00:00 1.2 3 Sur 8 Sudeste 0 918.1 -- 99
2021-01-26 03:00:00 0.9 5 Norte 13 Noroeste 0.2 917.5 -- 98
2021-01-26 02:00:00 2.1 3 Norte 5 Este 0 916.9 -- 97
2021-01-26 01:00:00 3.4 2 Noroeste 4 Sur 0 917 -- 97
2021-01-26 00:00:00 3.7 2 Sudeste 5 Este 0 916.4 -- 96
2021-01-25 23:00:00 4 4 Sudoeste 9 Nordeste 0 915.7 -- 95
2021-01-25 22:00:00 5.6 3 Norte 14 Norte 0 914.9 -- 92
2021-01-25 21:00:00 5.8 4 Norte 15 Nordeste 0 914.2 -- 96
2021-01-25 20:00:00 5.9 6 Nordeste 13 Nordeste 0 913 -- 96
2021-01-25 19:00:00 5.7 2 Nordeste 6 Sudeste 0 911.8 -- 95
2021-01-25 18:00:00 6.3 0 Calma 11 Noroeste 1.4 910.3 -- 95
2021-01-25 17:00:00 6.5 5 Norte 33 Nordeste 3.8 909.9 -- 93
2021-01-25 16:00:00 8.6 15 Nordeste 37 Sudoeste 1.4 908.3 -- 88
2021-01-25 15:00:00 11 21 Oeste 51 Oeste 0.6 907.4 -- 85
2021-01-25 14:00:00 11.7 24 Oeste 45 Sudoeste 0 907.5 -- 76
2021-01-25 13:00:00 11.5 21 Oeste 49 Noroeste 0 907.9 -- 75
2021-01-25 12:00:00 11 15 Oeste 41 Oeste 0 908.6 -- 76
2021-01-25 11:00:00 10.1 15 Oeste 39 Oeste 0 908.4 -- 79
2021-01-25 10:00:00 9.6 20 Oeste 39 Oeste 0 907.8 -- 78
2021-01-25 09:00:00 8.9 17 Sudoeste 28 Sudoeste 0 907.9 -- 78
2021-01-25 08:00:00 8.2 13 Oeste 34 Oeste 0 908.1 -- 81
2021-01-25 07:00:00 5.5 4 Sudoeste 9 Oeste 0 908.5 -- 84
2021-01-25 06:00:00 5.1 5 Sudeste 9 Sudeste 0 908.7 -- 85
2021-01-25 05:00:00 4.8 5 Sudeste 8 Sudoeste 0 909.6 -- 85
2021-01-25 04:00:00 4.8 4 Sur 13 Noroeste 0 910.3 -- 83
2021-01-25 03:00:00 5.4 9 Oeste 21 Oeste 0 910.9 -- 82
2021-01-25 02:00:00 5.3 6 Sudoeste 25 Oeste 0 911.4 -- 79
2021-01-25 01:00:00 5.6 11 Oeste 22 Oeste 0 911.8 -- 76
2021-01-25 00:00:00 5.2 5 Noroeste 14 Noroeste 0 912.2 -- 75